Flight Track Log - Related Links

Times and Time Zones

All times are in EDT time to prevent confusion due to time zone crossing. See the JBU917 flight status page for this flight to view local times or setup timezone preferences in your user account.

Time Position Orientation Groundspeed Altitude Reporting Facility
EDT Latitude Longitude Course Direction KTS MPH feet Rate Location/Type
Sun 03:59:27 PM 40.6333 -73.8333 306° West 160 184 1,700  Level New York TRACON
Sun 04:00:27 PM 40.6000 -73.8667 217° Southwest 236 272 4,000 2,050 Climbing New York TRACON
Sun 04:01:00 PM 40.7824 -74.0491 323° Northwest  Level FlightAware Approximate
Sun 04:01:27 PM 40.5833 -73.8000 108° East 281 323 5,800  Level New York TRACON
Sun 04:02:00 PM 40.8327 -74.1486 304° West  Level FlightAware Approximate
Sun 04:02:27 PM 40.6167 -73.6833 69° East 317 365 8,000  Level New York TRACON
Sun 04:03:00 PM 40.8836 -74.2476 306° West  Level FlightAware Approximate
Sun 04:03:27 PM 40.6500 -73.5833 66° East 337 388 10,700  Level New York TRACON
Sun 04:04:00 PM 40.9366 -74.3448 306° West  Level FlightAware Approximate
Sun 04:05:11 PM 40.8142 -73.5622 North 331 381 13,900  Level New York Center
Sun 04:05:27 PM 40.8333 -73.5667 350° North 326 375 14,800 2,289 Climbing New York TRACON
Sun 04:06:27 PM 40.9000 -73.6333 323° Northwest 315 362 16,800 795 Climbing New York TRACON
Sun 04:08:13 PM 40.9622 -73.8019 296° West 327 376 17,000 74 Climbing New York Center
Sun 04:09:10 PM 40.9861 -73.9294 284° West 322 371 17,000  Level New York Center
Sun 04:10:10 PM 41.0064 -74.0294 285° West 316 364 17,000  Level New York Center
Sun 04:11:11 PM 41.0319 -74.1544 285° West 321 369 17,000  Level New York Center
Sun 04:12:11 PM 41.0536 -74.2656 285° West 321 369 17,000  Level New York Center
Sun 04:13:12 PM 41.0736 -74.3656 285° West 313 360 17,000  Level New York Center
Sun 04:14:12 PM 41.0950 -74.4825 284° West 301 346 17,000  Level New York Center
Sun 04:15:10 PM 41.1150 -74.5744 286° West 295 339 17,000  Level New York Center
Sun 04:16:11 PM 41.1361 -74.6911 284° West 295 339 17,000 689 Level New York Center
Sun 04:17:12 PM 41.1747 -74.7789 300° West 295 339 18,400 1,770 Climbing New York Center
Sun 04:18:13 PM 41.2172 -74.8808 299° West 300 345 20,600 1,983 Climbing New York Center
Sun 04:19:10 PM 41.2575 -74.9769 299° West 318 366 22,300 1,765 Climbing New York Center
Sun 04:20:12 PM 41.3017 -75.0792 300° West 318 366 24,100 1,268 Climbing New York Center
Sun 04:21:13 PM 41.3497 -75.1900 300° West 326 375 24,900 1,008 Climbing New York Center
Sun 04:22:11 PM 41.3994 -75.3067 300° West 341 392 26,100 1,271 Climbing New York Center
Sun 04:23:11 PM 41.4492 -75.4208 300° West 355 409 27,400 1,537 Climbing New York Center
Sun 04:24:12 PM 41.4922 -75.5428 295° West 361 415 29,200 1,475 Climbing New York Center
Sun 04:25:13 PM 41.5289 -75.6672 292° West 361 415 30,400 1,119 Climbing New York Center
Sun 04:26:10 PM 41.5633 -75.7892 291° West 361 415 31,400 814 Climbing New York Center
Sun 04:27:11 PM 41.5994 -75.9139 291° West 356 410 32,000 298 Climbing New York Center
Sun 04:28:11 PM 41.6356 -76.0417 291° West 361 415 32,000  Level New York Center
Sun 04:29:12 PM 41.6714 -76.1722 290° West 361 415 32,000  Level New York Center
Sun 04:30:13 PM 41.7092 -76.3031 291° West 372 428 32,000  Level New York Center
Sun 04:31:10 PM 41.7428 -76.4308 289° West 372 428 32,000  Level New York Center
Sun 04:32:11 PM 41.7803 -76.5592 291° West 372 428 32,000  Level New York Center
Sun 04:33:11 PM 41.8136 -76.6847 290° West 372 428 32,000  Level New York Center
Sun 04:35:23 PM 41.8950 -76.9761 291° West 375 432 32,000  Level Cleveland Center
Sun 04:36:23 PM 41.9281 -77.1025 289° West 375 432 32,000  Level Cleveland Center
Sun 04:37:23 PM 41.9653 -77.2319 291° West 375 432 32,000  Level Cleveland Center
Sun 04:38:23 PM 42.0003 -77.3642 290° West 375 432 32,000  Level Cleveland Center
Sun 04:39:23 PM 42.0331 -77.4939 289° West 375 432 32,000  Level Cleveland Center
Sun 04:40:23 PM 42.0700 -77.6236 291° West 375 432 32,000  Level Cleveland Center
Sun 04:41:23 PM 42.1044 -77.7564 289° West 375 432 32,000  Level Cleveland Center
Sun 04:42:23 PM 42.1414 -77.9003 289° West 375 432 32,000  Level Cleveland Center
Sun 04:43:23 PM 42.1778 -78.0333 290° West 375 432 32,000  Level Cleveland Center
Sun 04:44:23 PM 42.2119 -78.1694 289° West 375 432 32,000  Level Cleveland Center
Sun 04:45:23 PM 42.2458 -78.3000 289° West 375 432 32,000  Level Cleveland Center
Sun 04:46:23 PM 42.2797 -78.4364 289° West 375 432 32,000 -250 Level Cleveland Center
Sun 04:47:23 PM 42.3156 -78.5697 290° West 375 432 31,500 -750 Descending Cleveland Center
Sun 04:48:23 PM 42.3511 -78.7064 289° West 381 438 30,500 -1,000 Descending Cleveland Center
Sun 04:49:23 PM 42.3847 -78.8431 288° West 381 438 29,500 -1,000 Descending Cleveland Center
Sun 04:50:23 PM 42.4158 -78.9831 287° West 381 438 28,500 -750 Descending Cleveland Center
Sun 04:51:23 PM 42.4508 -79.1172 290° West 376 433 28,000 -250 Descending Cleveland Center
Sun 04:52:23 PM 42.4858 -79.2514 290° West 381 438 28,000  Level Cleveland Center
Sun 04:53:23 PM 42.4978 -79.3919 277° West 376 433 28,000  Level Cleveland Center
Sun 04:54:23 PM 42.5056 -79.5383 274° West 376 433 28,000  Level Cleveland Center
Sun 04:55:23 PM 42.5150 -79.6789 275° West 386 444 28,000  Level Cleveland Center
Sun 04:56:23 PM 42.5203 -79.8253 273° West 386 444 28,000  Level Cleveland Center
Sun 04:57:23 PM 42.5275 -79.9689 274° West 386 444 28,000  Level Cleveland Center
Sun 04:58:23 PM 42.5281 -80.1183 270° West 386 444 28,000  Level Cleveland Center
Sun 04:59:23 PM 42.5347 -80.2647 274° West 386 444 28,000  Level Cleveland Center
Sun 05:00:23 PM 42.5414 -80.4142 274° West 386 444 28,000  Level Cleveland Center
Sun 05:01:23 PM 42.5478 -80.5606 273° West 392 451 28,000  Level Cleveland Center
Sun 05:02:23 PM 42.5539 -80.7100 273° West 392 451 28,000  Level Cleveland Center
Sun 05:03:23 PM 42.5600 -80.8594 273° West 401 461 28,000  Level Cleveland Center
Sun 05:04:23 PM 42.5658 -81.0089 273° West 401 461 28,000  Level Cleveland Center
Sun 05:05:23 PM 42.5714 -81.1611 273° West 401 461 28,000  Level Cleveland Center
Sun 05:06:23 PM 42.5747 -81.3133 272° West 401 461 28,000  Level Cleveland Center
Sun 05:07:23 PM 42.5800 -81.4461 273° West 401 461 28,000  Level Cleveland Center
Sun 05:08:23 PM 42.6058 -81.5903 284° West 401 461 28,000  Level Cleveland Center
Sun 05:09:23 PM 42.6336 -81.7375 284° West 406 467 28,000  Level Cleveland Center
Sun 05:10:23 PM 42.6592 -81.8847 283° West 406 467 28,000  Level Cleveland Center
Sun 05:11:23 PM 42.6844 -82.0378 283° West 411 473 28,000  Level Cleveland Center
Sun 05:12:23 PM 42.7094 -82.1853 283° West 411 473 28,000  Level Cleveland Center
Sun 05:13:23 PM 42.7367 -82.3300 284° West 411 473 28,000  Level Cleveland Center
Sun 05:14:23 PM 42.7592 -82.4806 282° West 411 473 28,000  Level Cleveland Center
Sun 05:15:23 PM 42.7858 -82.6314 284° West 411 473 28,000  Level Cleveland Center
Sun 05:16:23 PM 42.8103 -82.7794 283° West 411 473 28,000  Level Cleveland Center
Sun 05:17:23 PM 42.8344 -82.9331 282° West 416 479 28,000  Level Cleveland Center
Sun 05:18:23 PM 42.8583 -83.0842 282° West 411 473 28,000  Level Cleveland Center
Sun 05:19:23 PM 42.8631 -83.2372 272° West 411 473 28,000  Level Cleveland Center
Sun 05:20:23 PM 42.8633 -83.4072 270° West 411 473 28,000  Level Cleveland Center
Sun 05:21:23 PM 42.8697 -83.5606 273° West 411 473 28,000  Level Cleveland Center
Sun 05:22:23 PM 42.8719 -83.7194 271° West 411 473 28,000  Level Cleveland Center
Sun 05:23:23 PM 42.8739 -83.8753 271° West 411 473 28,000  Level Cleveland Center
Sun 05:24:23 PM 42.8756 -84.0286 271° West 411 473 28,000  Level Cleveland Center
Sun 05:26:05 PM 42.8800 -84.2872 271° West 413 475 28,000  Level Chicago Center
Sun 05:27:07 PM 42.8836 -84.4444 272° West 415 478 28,000  Level Chicago Center
Sun 05:28:09 PM 42.8833 -84.5992 270° West 411 473 28,000  Level Chicago Center
Sun 05:29:11 PM 42.8667 -84.7536 262° West 412 474 28,000  Level Chicago Center
Sun 05:30:13 PM 42.8506 -84.9083 262° West 414 476 28,000  Level Chicago Center
Sun 05:31:15 PM 42.8303 -85.0942 262° West 415 478 28,000  Level Chicago Center
Sun 05:32:17 PM 42.8139 -85.2508 262° West 417 480 28,000  Level Chicago Center
Sun 05:33:18 PM 42.7975 -85.4064 262° West 415 478 28,000  Level Chicago Center
Sun 05:34:20 PM 42.7753 -85.5636 259° West 422 486 28,000 -387 Level Chicago Center
Sun 05:35:22 PM 42.7469 -85.7203 256° West 422 486 27,200 -1,355 Descending Chicago Center
Sun 05:36:24 PM 42.7186 -85.8728 256° West 417 480 25,200 -1,887 Descending Chicago Center
Sun 05:37:26 PM 42.6919 -86.0214 256° West 407 468 23,300 -1,742 Descending Chicago Center
Sun 05:38:28 PM 42.6664 -86.1614 256° West 389 448 21,600 -1,452 Descending Chicago Center
Sun 05:39:30 PM 42.6444 -86.2800 256° West 341 392 20,300 -1,403 Descending Chicago Center
Sun 05:40:32 PM 42.6186 -86.4133 255° West 306 352 18,700 -1,403 Descending Chicago Center
Sun 05:41:34 PM 42.5989 -86.5219 256° West 297 342 17,400 -1,268 Descending Chicago Center
Sun 05:42:35 PM 42.5789 -86.6275 256° West 292 336 16,100 -1,268 Descending Chicago Center
Sun 05:43:37 PM 42.5586 -86.7336 255° West 291 335 14,800 -1,210 Descending Chicago Center
Sun 05:44:39 PM 42.5322 -86.8300 250° West 278 320 13,600 -1,161 Descending Chicago Center
Sun 05:45:41 PM 42.5081 -86.9217 250° West 266 306 12,400 -1,258 Descending Chicago Center
Sun 05:46:43 PM 42.4786 -87.0281 249° West 253 291 11,000 -1,161 Descending Chicago Center
Sun 05:47:45 PM 42.4528 -87.1181 249° West 256 295 10,000 -484 Descending Chicago Center
Sun 05:48:47 PM 42.4286 -87.2086 250° West 257 296 10,000 -435 Level Chicago Center
Sun 05:49:49 PM 42.4044 -87.2997 250° West 257 296 9,100 -1,258 Descending Chicago Center
Sun 05:50:51 PM 42.3783 -87.3878 248° West 253 291 7,400 -1,500 Descending Chicago Center
Sun 05:51:53 PM 42.3539 -87.4833 251° West 254 292 6,000 -677 Descending Chicago Center
Sun 05:52:55 PM 42.3014 -87.5536 225° Southwest 240 276 6,000  Level Chicago Center
Sun 05:53:57 PM 42.2519 -87.6136 222° Southwest 244 281 6,000 -48 Level Chicago Center
Sun 05:54:59 PM 42.2064 -87.6675 221° Southwest 222 255 5,900 -484 Descending Chicago Center
Sun 05:56:01 PM 42.1658 -87.7106 218° Southwest 194 223 5,000 -1,073 Descending Chicago Center
Sun 05:57:02 PM 42.1167 -87.7653 220° Southwest 191 220 3,700 -1,154 Descending Chicago Center
Sun 05:57:19 PM 42.1000 -87.7833 219° Southwest 200 230 3,500 -1,091 Descending Chicago TRACON
Sun 05:58:19 PM 42.0667 -87.8167 217° Southwest 204 235 2,300 -1,053 Descending Chicago TRACON
Sun 05:59:13 PM 42.0333 -87.8667 228° Southwest 157 181 1,500 -833 Descending Chicago TRACON
Sun 06:00:07 PM 42.0000 -87.9000 217° Southwest 141 162 800 -778 Descending Chicago TRACON

Login

Don't have an account? Register now (free) for customized features, flight alerts, and more!